sensor_id;sensor_type;location;lat;lon;timestamp;P1;durP1;ratioP1;P2;durP2;ratioP2
6531;SDS011;3299;42.004;24.868;2022-12-07T00:00:26;7.53;;;4.95;;
6531;SDS011;3299;42.004;24.868;2022-12-07T00:02:51;6.95;;;5.50;;
6531;SDS011;3299;42.004;24.868;2022-12-07T00:05:16;8.70;;;5.38;;
6531;SDS011;3299;42.004;24.868;2022-12-07T00:07:42;8.52;;;5.15;;
6531;SDS011;3299;42.004;24.868;2022-12-07T00:10:07;6.40;;;5.07;;
6531;SDS011;3299;42.004;24.868;2022-12-07T00:12:33;8.18;;;5.35;;
6531;SDS011;3299;42.004;24.868;2022-12-07T00:14:58;7.47;;;5.20;;
6531;SDS011;3299;42.004;24.868;2022-12-07T00:17:23;7.35;;;5.18;;
6531;SDS011;3299;42.004;24.868;2022-12-07T00:19:49;6.68;;;5.22;;
6531;SDS011;3299;42.004;24.868;2022-12-07T00:22:14;8.73;;;5.35;;
6531;SDS011;3299;42.004;24.868;2022-12-07T00:24:42;8.35;;;4.47;;
6531;SDS011;3299;42.004;24.868;2022-12-07T00:27:08;11.30;;;5.53;;
6531;SDS011;3299;42.004;24.868;2022-12-07T00:29:33;6.55;;;4.88;;
6531;SDS011;3299;42.004;24.868;2022-12-07T00:31:59;11.27;;;5.47;;
6531;SDS011;3299;42.004;24.868;2022-12-07T00:34:24;8.43;;;5.78;;
6531;SDS011;3299;42.004;24.868;2022-12-07T00:36:50;8.98;;;5.78;;
6531;SDS011;3299;42.004;24.868;2022-12-07T00:39:15;6.90;;;4.72;;
6531;SDS011;3299;42.004;24.868;2022-12-07T00:41:41;9.40;;;5.45;;
6531;SDS011;3299;42.004;24.868;2022-12-07T00:44:07;6.80;;;4.75;;
6531;SDS011;3299;42.004;24.868;2022-12-07T00:46:32;9.00;;;5.47;;
6531;SDS011;3299;42.004;24.868;2022-12-07T00:48:58;8.07;;;5.03;;
6531;SDS011;3299;42.004;24.868;2022-12-07T00:51:24;8.10;;;5.65;;
6531;SDS011;3299;42.004;24.868;2022-12-07T00:53:50;8.65;;;5.25;;
6531;SDS011;3299;42.004;24.868;2022-12-07T00:58:55;9.50;;;5.20;;
6531;SDS011;3299;42.004;24.868;2022-12-07T01:01:31;9.07;;;5.80;;
6531;SDS011;3299;42.004;24.868;2022-12-07T01:03:58;9.52;;;4.85;;
6531;SDS011;3299;42.004;24.868;2022-12-07T01:06:26;9.73;;;6.05;;
6531;SDS011;3299;42.004;24.868;2022-12-07T01:08:51;12.80;;;6.65;;
6531;SDS011;3299;42.004;24.868;2022-12-07T01:11:18;6.60;;;4.68;;
6531;SDS011;3299;42.004;24.868;2022-12-07T01:13:45;8.05;;;5.60;;
6531;SDS011;3299;42.004;24.868;2022-12-07T01:16:12;5.63;;;5.03;;
6531;SDS011;3299;42.004;24.868;2022-12-07T01:18:39;6.05;;;5.22;;
6531;SDS011;3299;42.004;24.868;2022-12-07T01:21:16;7.85;;;5.03;;
6531;SDS011;3299;42.004;24.868;2022-12-07T01:23:43;10.25;;;5.00;;
6531;SDS011;3299;42.004;24.868;2022-12-07T01:26:12;8.07;;;5.50;;
6531;SDS011;3299;42.004;24.868;2022-12-07T01:28:40;7.07;;;5.25;;
6531;SDS011;3299;42.004;24.868;2022-12-07T01:31:11;8.35;;;4.68;;
6531;SDS011;3299;42.004;24.868;2022-12-07T01:33:40;6.50;;;4.65;;
6531;SDS011;3299;42.004;24.868;2022-12-07T01:36:08;9.75;;;5.07;;
6531;SDS011;3299;42.004;24.868;2022-12-07T01:38:34;7.07;;;4.50;;
6531;SDS011;3299;42.004;24.868;2022-12-07T01:41:00;9.88;;;4.82;;
6531;SDS011;3299;42.004;24.868;2022-12-07T01:43:27;8.85;;;4.50;;
6531;SDS011;3299;42.004;24.868;2022-12-07T01:45:54;6.70;;;4.70;;
6531;SDS011;3299;42.004;24.868;2022-12-07T01:48:41;7.47;;;4.95;;
6531;SDS011;3299;42.004;24.868;2022-12-07T01:51:10;9.15;;;4.78;;
6531;SDS011;3299;42.004;24.868;2022-12-07T01:53:38;7.90;;;4.40;;
6531;SDS011;3299;42.004;24.868;2022-12-07T01:56:08;6.63;;;4.18;;
6531;SDS011;3299;42.004;24.868;2022-12-07T01:58:38;7.47;;;4.32;;
6531;SDS011;3299;42.004;24.868;2022-12-07T02:01:04;7.47;;;4.50;;
6531;SDS011;3299;42.004;24.868;2022-12-07T02:03:31;5.85;;;4.18;;
6531;SDS011;3299;42.004;24.868;2022-12-07T02:06:01;5.65;;;4.25;;
6531;SDS011;3299;42.004;24.868;2022-12-07T02:08:28;6.80;;;4.65;;
6531;SDS011;3299;42.004;24.868;2022-12-07T02:10:56;6.25;;;4.82;;
6531;SDS011;3299;42.004;24.868;2022-12-07T02:13:23;5.22;;;3.90;;
6531;SDS011;3299;42.004;24.868;2022-12-07T02:21:58;6.80;;;4.40;;
6531;SDS011;3299;42.004;24.868;2022-12-07T02:27:37;5.25;;;3.78;;
6531;SDS011;3299;42.004;24.868;2022-12-07T02:30:10;6.00;;;3.97;;
6531;SDS011;3299;42.004;24.868;2022-12-07T02:35:20;8.85;;;4.50;;
6531;SDS011;3299;42.004;24.868;2022-12-07T02:40:27;5.40;;;3.90;;
6531;SDS011;3299;42.004;24.868;2022-12-07T02:42:58;4.00;;;3.58;;
6531;SDS011;3299;42.004;24.868;2022-12-07T02:45:30;6.25;;;4.20;;
6531;SDS011;3299;42.004;24.868;2022-12-07T02:47:57;7.57;;;4.68;;
6531;SDS011;3299;42.004;24.868;2022-12-07T02:50:26;5.63;;;4.20;;
6531;SDS011;3299;42.004;24.868;2022-12-07T02:52:52;6.82;;;4.05;;
6531;SDS011;3299;42.004;24.868;2022-12-07T02:55:18;8.80;;;4.10;;
6531;SDS011;3299;42.004;24.868;2022-12-07T02:57:54;10.73;;;5.43;;
6531;SDS011;3299;42.004;24.868;2022-12-07T03:00:22;9.48;;;4.57;;
6531;SDS011;3299;42.004;24.868;2022-12-07T03:02:58;8.07;;;4.45;;
6531;SDS011;3299;42.004;24.868;2022-12-07T03:08:21;6.50;;;3.92;;
6531;SDS011;3299;42.004;24.868;2022-12-07T03:16:35;4.07;;;3.63;;
6531;SDS011;3299;42.004;24.868;2022-12-07T03:19:08;6.45;;;3.97;;
6531;SDS011;3299;42.004;24.868;2022-12-07T03:21:38;6.63;;;4.00;;
6531;SDS011;3299;42.004;24.868;2022-12-07T03:24:08;7.03;;;4.38;;
6531;SDS011;3299;42.004;24.868;2022-12-07T03:26:46;4.88;;;4.32;;
6531;SDS011;3299;42.004;24.868;2022-12-07T03:29:34;9.38;;;4.53;;
6531;SDS011;3299;42.004;24.868;2022-12-07T03:34:52;7.18;;;4.10;;
6531;SDS011;3299;42.004;24.868;2022-12-07T03:37:36;5.05;;;3.70;;
6531;SDS011;3299;42.004;24.868;2022-12-07T03:43:15;9.23;;;4.22;;
6531;SDS011;3299;42.004;24.868;2022-12-07T03:46:01;8.05;;;4.07;;
6531;SDS011;3299;42.004;24.868;2022-12-07T03:48:41;6.95;;;4.15;;
6531;SDS011;3299;42.004;24.868;2022-12-07T03:51:21;6.22;;;4.95;;
6531;SDS011;3299;42.004;24.868;2022-12-07T03:53:53;7.15;;;4.72;;
6531;SDS011;3299;42.004;24.868;2022-12-07T03:56:25;7.93;;;5.13;;
6531;SDS011;3299;42.004;24.868;2022-12-07T03:58:53;9.48;;;5.18;;
6531;SDS011;3299;42.004;24.868;2022-12-07T04:01:19;8.18;;;4.25;;
6531;SDS011;3299;42.004;24.868;2022-12-07T04:03:45;6.65;;;4.57;;
6531;SDS011;3299;42.004;24.868;2022-12-07T04:06:10;6.75;;;5.18;;
6531;SDS011;3299;42.004;24.868;2022-12-07T04:08:36;8.23;;;4.63;;
6531;SDS011;3299;42.004;24.868;2022-12-07T04:11:01;7.28;;;4.45;;
6531;SDS011;3299;42.004;24.868;2022-12-07T04:13:27;3.80;;;3.50;;
6531;SDS011;3299;42.004;24.868;2022-12-07T04:15:52;5.70;;;3.92;;
6531;SDS011;3299;42.004;24.868;2022-12-07T04:18:17;5.22;;;4.13;;
6531;SDS011;3299;42.004;24.868;2022-12-07T04:20:43;5.57;;;4.13;;
6531;SDS011;3299;42.004;24.868;2022-12-07T04:23:08;4.53;;;3.83;;
6531;SDS011;3299;42.004;24.868;2022-12-07T04:25:34;6.25;;;4.07;;
6531;SDS011;3299;42.004;24.868;2022-12-07T04:27:59;7.07;;;3.58;;
6531;SDS011;3299;42.004;24.868;2022-12-07T04:30:25;6.25;;;3.42;;
6531;SDS011;3299;42.004;24.868;2022-12-07T04:32:50;4.53;;;3.60;;
6531;SDS011;3299;42.004;24.868;2022-12-07T04:35:15;6.28;;;3.50;;
6531;SDS011;3299;42.004;24.868;2022-12-07T04:37:41;4.15;;;3.75;;
6531;SDS011;3299;42.004;24.868;2022-12-07T04:40:09;6.80;;;3.58;;
6531;SDS011;3299;42.004;24.868;2022-12-07T04:42:36;4.90;;;3.97;;
6531;SDS011;3299;42.004;24.868;2022-12-07T04:45:02;4.85;;;3.72;;
6531;SDS011;3299;42.004;24.868;2022-12-07T04:47:27;4.20;;;3.80;;
6531;SDS011;3299;42.004;24.868;2022-12-07T04:49:53;7.43;;;3.95;;
6531;SDS011;3299;42.004;24.868;2022-12-07T04:52:18;3.97;;;3.35;;
6531;SDS011;3299;42.004;24.868;2022-12-07T04:54:44;5.80;;;3.30;;
6531;SDS011;3299;42.004;24.868;2022-12-07T04:57:09;5.47;;;3.28;;
6531;SDS011;3299;42.004;24.868;2022-12-07T04:59:34;5.50;;;3.90;;
6531;SDS011;3299;42.004;24.868;2022-12-07T05:02:00;5.38;;;3.28;;
6531;SDS011;3299;42.004;24.868;2022-12-07T05:04:25;4.55;;;3.63;;
6531;SDS011;3299;42.004;24.868;2022-12-07T05:06:51;4.55;;;3.72;;
6531;SDS011;3299;42.004;24.868;2022-12-07T05:09:16;5.28;;;3.38;;
6531;SDS011;3299;42.004;24.868;2022-12-07T05:11:42;3.80;;;2.88;;
6531;SDS011;3299;42.004;24.868;2022-12-07T05:14:12;4.00;;;2.88;;
6531;SDS011;3299;42.004;24.868;2022-12-07T05:16:43;6.57;;;2.75;;
6531;SDS011;3299;42.004;24.868;2022-12-07T05:19:10;4.80;;;2.90;;
6531;SDS011;3299;42.004;24.868;2022-12-07T05:21:36;7.82;;;3.50;;
6531;SDS011;3299;42.004;24.868;2022-12-07T05:24:02;4.55;;;2.80;;
6531;SDS011;3299;42.004;24.868;2022-12-07T05:26:28;4.45;;;3.00;;
6531;SDS011;3299;42.004;24.868;2022-12-07T05:28:54;5.50;;;3.72;;
6531;SDS011;3299;42.004;24.868;2022-12-07T05:31:21;5.85;;;3.15;;
6531;SDS011;3299;42.004;24.868;2022-12-07T05:33:47;5.65;;;3.15;;
6531;SDS011;3299;42.004;24.868;2022-12-07T05:36:13;4.22;;;2.97;;
6531;SDS011;3299;42.004;24.868;2022-12-07T05:38:38;3.60;;;3.30;;
6531;SDS011;3299;42.004;24.868;2022-12-07T05:41:05;4.03;;;3.63;;
6531;SDS011;3299;42.004;24.868;2022-12-07T05:43:34;8.07;;;3.30;;
6531;SDS011;3299;42.004;24.868;2022-12-07T05:45:59;5.65;;;3.45;;
6531;SDS011;3299;42.004;24.868;2022-12-07T05:48:25;6.60;;;3.88;;
6531;SDS011;3299;42.004;24.868;2022-12-07T05:50:51;6.45;;;3.42;;
6531;SDS011;3299;42.004;24.868;2022-12-07T05:53:17;4.43;;;3.45;;
6531;SDS011;3299;42.004;24.868;2022-12-07T05:55:42;5.43;;;3.55;;
6531;SDS011;3299;42.004;24.868;2022-12-07T05:58:08;11.65;;;3.75;;
6531;SDS011;3299;42.004;24.868;2022-12-07T06:00:54;4.13;;;3.60;;
6531;SDS011;3299;42.004;24.868;2022-12-07T06:03:20;10.43;;;6.72;;
6531;SDS011;3299;42.004;24.868;2022-12-07T06:05:45;6.85;;;3.65;;
6531;SDS011;3299;42.004;24.868;2022-12-07T06:08:10;3.83;;;3.25;;
6531;SDS011;3299;42.004;24.868;2022-12-07T06:10:36;3.65;;;3.15;;
6531;SDS011;3299;42.004;24.868;2022-12-07T06:13:01;4.28;;;3.17;;
6531;SDS011;3299;42.004;24.868;2022-12-07T06:15:26;5.28;;;3.45;;
6531;SDS011;3299;42.004;24.868;2022-12-07T06:17:52;3.85;;;3.55;;
6531;SDS011;3299;42.004;24.868;2022-12-07T06:20:17;6.88;;;4.03;;
6531;SDS011;3299;42.004;24.868;2022-12-07T06:22:43;4.35;;;3.10;;
6531;SDS011;3299;42.004;24.868;2022-12-07T06:25:08;7.38;;;3.30;;
6531;SDS011;3299;42.004;24.868;2022-12-07T06:27:34;4.57;;;3.88;;
6531;SDS011;3299;42.004;24.868;2022-12-07T06:30:00;4.65;;;3.83;;
6531;SDS011;3299;42.004;24.868;2022-12-07T06:32:31;4.70;;;3.92;;
6531;SDS011;3299;42.004;24.868;2022-12-07T06:34:57;10.93;;;5.18;;
6531;SDS011;3299;42.004;24.868;2022-12-07T06:37:22;5.95;;;4.35;;
6531;SDS011;3299;42.004;24.868;2022-12-07T06:39:47;4.88;;;4.40;;
6531;SDS011;3299;42.004;24.868;2022-12-07T06:42:13;9.10;;;3.58;;
6531;SDS011;3299;42.004;24.868;2022-12-07T06:44:38;6.30;;;4.40;;
6531;SDS011;3299;42.004;24.868;2022-12-07T06:47:03;8.25;;;4.35;;
6531;SDS011;3299;42.004;24.868;2022-12-07T06:49:29;4.68;;;3.45;;
6531;SDS011;3299;42.004;24.868;2022-12-07T06:51:54;5.55;;;4.38;;
6531;SDS011;3299;42.004;24.868;2022-12-07T06:54:20;6.85;;;5.40;;
6531;SDS011;3299;42.004;24.868;2022-12-07T06:56:45;8.20;;;4.38;;
6531;SDS011;3299;42.004;24.868;2022-12-07T06:59:11;7.65;;;4.30;;
6531;SDS011;3299;42.004;24.868;2022-12-07T07:01:36;9.10;;;4.93;;
6531;SDS011;3299;42.004;24.868;2022-12-07T07:04:02;7.40;;;4.95;;
6531;SDS011;3299;42.004;24.868;2022-12-07T07:06:27;6.38;;;4.15;;
6531;SDS011;3299;42.004;24.868;2022-12-07T07:08:53;5.22;;;4.10;;
6531;SDS011;3299;42.004;24.868;2022-12-07T07:11:18;7.45;;;4.55;;
6531;SDS011;3299;42.004;24.868;2022-12-07T07:13:44;9.45;;;6.10;;
6531;SDS011;3299;42.004;24.868;2022-12-07T07:16:10;9.05;;;4.88;;
6531;SDS011;3299;42.004;24.868;2022-12-07T07:18:36;7.68;;;4.85;;
6531;SDS011;3299;42.004;24.868;2022-12-07T07:21:01;8.55;;;5.05;;
6531;SDS011;3299;42.004;24.868;2022-12-07T07:23:27;8.23;;;5.00;;
6531;SDS011;3299;42.004;24.868;2022-12-07T07:25:52;7.85;;;6.03;;
6531;SDS011;3299;42.004;24.868;2022-12-07T07:28:18;13.35;;;5.70;;
6531;SDS011;3299;42.004;24.868;2022-12-07T07:30:43;8.00;;;5.68;;
6531;SDS011;3299;42.004;24.868;2022-12-07T07:33:12;8.52;;;5.47;;
6531;SDS011;3299;42.004;24.868;2022-12-07T07:35:38;11.35;;;5.55;;
6531;SDS011;3299;42.004;24.868;2022-12-07T07:38:04;7.20;;;4.72;;
6531;SDS011;3299;42.004;24.868;2022-12-07T07:40:30;5.78;;;4.40;;
6531;SDS011;3299;42.004;24.868;2022-12-07T07:42:56;6.57;;;3.80;;
6531;SDS011;3299;42.004;24.868;2022-12-07T07:45:22;5.82;;;3.83;;
6531;SDS011;3299;42.004;24.868;2022-12-07T07:47:49;7.88;;;4.80;;
6531;SDS011;3299;42.004;24.868;2022-12-07T07:50:15;5.63;;;4.32;;
6531;SDS011;3299;42.004;24.868;2022-12-07T07:52:41;13.48;;;8.38;;
6531;SDS011;3299;42.004;24.868;2022-12-07T07:55:07;16.30;;;10.85;;
6531;SDS011;3299;42.004;24.868;2022-12-07T07:57:33;9.85;;;5.82;;
6531;SDS011;3299;42.004;24.868;2022-12-07T07:59:59;9.68;;;6.60;;
6531;SDS011;3299;42.004;24.868;2022-12-07T08:02:25;11.07;;;6.93;;
6531;SDS011;3299;42.004;24.868;2022-12-07T08:04:50;28.27;;;15.60;;
6531;SDS011;3299;42.004;24.868;2022-12-07T08:07:16;15.85;;;9.02;;
6531;SDS011;3299;42.004;24.868;2022-12-07T08:09:44;40.55;;;20.65;;
6531;SDS011;3299;42.004;24.868;2022-12-07T08:12:10;43.85;;;22.65;;
6531;SDS011;3299;42.004;24.868;2022-12-07T08:14:35;30.90;;;15.65;;
6531;SDS011;3299;42.004;24.868;2022-12-07T08:17:01;14.07;;;8.95;;
6531;SDS011;3299;42.004;24.868;2022-12-07T08:19:26;18.42;;;10.73;;
6531;SDS011;3299;42.004;24.868;2022-12-07T08:21:52;20.17;;;10.02;;
6531;SDS011;3299;42.004;24.868;2022-12-07T08:24:17;20.55;;;11.88;;
6531;SDS011;3299;42.004;24.868;2022-12-07T08:26:43;17.95;;;11.25;;
6531;SDS011;3299;42.004;24.868;2022-12-07T08:29:09;19.85;;;11.63;;
6531;SDS011;3299;42.004;24.868;2022-12-07T08:31:34;20.08;;;12.30;;
6531;SDS011;3299;42.004;24.868;2022-12-07T08:34:00;21.13;;;12.18;;
6531;SDS011;3299;42.004;24.868;2022-12-07T08:36:26;24.65;;;13.77;;
6531;SDS011;3299;42.004;24.868;2022-12-07T08:38:51;30.75;;;14.05;;
6531;SDS011;3299;42.004;24.868;2022-12-07T08:41:17;24.90;;;12.77;;
6531;SDS011;3299;42.004;24.868;2022-12-07T08:43:43;29.13;;;14.63;;
6531;SDS011;3299;42.004;24.868;2022-12-07T08:46:09;30.65;;;16.33;;
6531;SDS011;3299;42.004;24.868;2022-12-07T08:48:36;34.22;;;17.33;;
6531;SDS011;3299;42.004;24.868;2022-12-07T08:51:08;31.58;;;17.02;;
6531;SDS011;3299;42.004;24.868;2022-12-07T08:53:34;32.28;;;17.65;;
6531;SDS011;3299;42.004;24.868;2022-12-07T08:56:02;38.13;;;18.67;;
6531;SDS011;3299;42.004;24.868;2022-12-07T08:58:28;46.00;;;20.35;;
6531;SDS011;3299;42.004;24.868;2022-12-07T09:00:54;33.55;;;18.50;;
6531;SDS011;3299;42.004;24.868;2022-12-07T09:03:19;33.60;;;15.73;;
6531;SDS011;3299;42.004;24.868;2022-12-07T09:05:44;27.02;;;15.82;;
6531;SDS011;3299;42.004;24.868;2022-12-07T09:08:10;32.92;;;15.88;;
6531;SDS011;3299;42.004;24.868;2022-12-07T09:10:35;27.63;;;15.90;;
6531;SDS011;3299;42.004;24.868;2022-12-07T09:13:01;25.27;;;15.77;;
6531;SDS011;3299;42.004;24.868;2022-12-07T09:15:29;29.20;;;15.88;;
6531;SDS011;3299;42.004;24.868;2022-12-07T09:17:56;31.40;;;16.10;;
6531;SDS011;3299;42.004;24.868;2022-12-07T09:20:21;30.08;;;15.73;;
6531;SDS011;3299;42.004;24.868;2022-12-07T09:22:47;39.60;;;18.95;;
6531;SDS011;3299;42.004;24.868;2022-12-07T09:25:13;37.10;;;18.98;;
6531;SDS011;3299;42.004;24.868;2022-12-07T09:27:38;29.13;;;16.23;;
6531;SDS011;3299;42.004;24.868;2022-12-07T09:30:04;28.85;;;16.05;;
6531;SDS011;3299;42.004;24.868;2022-12-07T09:32:31;26.98;;;16.63;;
6531;SDS011;3299;42.004;24.868;2022-12-07T09:34:56;30.15;;;15.07;;
6531;SDS011;3299;42.004;24.868;2022-12-07T09:37:22;33.13;;;16.05;;
6531;SDS011;3299;42.004;24.868;2022-12-07T09:39:47;29.40;;;15.95;;
6531;SDS011;3299;42.004;24.868;2022-12-07T09:42:24;28.05;;;16.25;;
6531;SDS011;3299;42.004;24.868;2022-12-07T09:44:59;38.72;;;18.13;;
6531;SDS011;3299;42.004;24.868;2022-12-07T09:47:25;41.42;;;19.92;;
6531;SDS011;3299;42.004;24.868;2022-12-07T09:49:53;48.35;;;22.48;;
6531;SDS011;3299;42.004;24.868;2022-12-07T09:52:27;39.42;;;19.38;;
6531;SDS011;3299;42.004;24.868;2022-12-07T09:54:54;34.00;;;15.52;;
6531;SDS011;3299;42.004;24.868;2022-12-07T09:57:21;25.95;;;16.27;;
6531;SDS011;3299;42.004;24.868;2022-12-07T09:59:54;28.67;;;15.82;;
6531;SDS011;3299;42.004;24.868;2022-12-07T10:04:55;28.65;;;16.50;;
6531;SDS011;3299;42.004;24.868;2022-12-07T10:07:23;38.75;;;20.83;;
6531;SDS011;3299;42.004;24.868;2022-12-07T10:09:48;35.95;;;19.92;;
6531;SDS011;3299;42.004;24.868;2022-12-07T10:12:14;33.22;;;17.50;;
6531;SDS011;3299;42.004;24.868;2022-12-07T10:14:51;34.75;;;18.48;;
6531;SDS011;3299;42.004;24.868;2022-12-07T10:17:28;34.65;;;17.50;;
6531;SDS011;3299;42.004;24.868;2022-12-07T10:20:14;35.25;;;17.48;;
6531;SDS011;3299;42.004;24.868;2022-12-07T10:25:40;28.33;;;17.15;;
6531;SDS011;3299;42.004;24.868;2022-12-07T10:30:33;31.08;;;17.42;;
6531;SDS011;3299;42.004;24.868;2022-12-07T10:36:22;31.80;;;16.08;;
6531;SDS011;3299;42.004;24.868;2022-12-07T10:38:52;30.60;;;15.85;;
6531;SDS011;3299;42.004;24.868;2022-12-07T10:41:23;28.48;;;16.88;;
6531;SDS011;3299;42.004;24.868;2022-12-07T10:43:50;28.58;;;16.58;;
6531;SDS011;3299;42.004;24.868;2022-12-07T10:51:46;28.63;;;15.93;;
6531;SDS011;3299;42.004;24.868;2022-12-07T11:08:16;28.77;;;15.43;;
6531;SDS011;3299;42.004;24.868;2022-12-07T11:11:19;25.45;;;15.90;;
6531;SDS011;3299;42.004;24.868;2022-12-07T11:22:42;28.70;;;15.60;;
6531;SDS011;3299;42.004;24.868;2022-12-07T11:30:19;30.42;;;17.05;;
6531;SDS011;3299;42.004;24.868;2022-12-07T11:32:57;29.40;;;16.75;;
6531;SDS011;3299;42.004;24.868;2022-12-07T11:38:58;25.42;;;16.20;;
6531;SDS011;3299;42.004;24.868;2022-12-07T11:41:28;28.83;;;16.48;;
6531;SDS011;3299;42.004;24.868;2022-12-07T11:46:49;26.20;;;15.20;;
6531;SDS011;3299;42.004;24.868;2022-12-07T11:52:01;27.63;;;15.93;;
6531;SDS011;3299;42.004;24.868;2022-12-07T11:54:30;24.55;;;15.20;;
6531;SDS011;3299;42.004;24.868;2022-12-07T11:57:01;24.63;;;15.45;;
6531;SDS011;3299;42.004;24.868;2022-12-07T11:59:36;27.40;;;14.40;;
6531;SDS011;3299;42.004;24.868;2022-12-07T12:02:16;24.85;;;14.95;;
6531;SDS011;3299;42.004;24.868;2022-12-07T12:05:18;26.17;;;14.70;;
6531;SDS011;3299;42.004;24.868;2022-12-07T12:07:46;26.75;;;13.93;;
6531;SDS011;3299;42.004;24.868;2022-12-07T12:13:48;22.92;;;13.00;;
6531;SDS011;3299;42.004;24.868;2022-12-07T12:22:21;18.65;;;12.50;;
6531;SDS011;3299;42.004;24.868;2022-12-07T12:24:49;21.13;;;12.52;;
6531;SDS011;3299;42.004;24.868;2022-12-07T12:27:24;20.90;;;11.65;;
6531;SDS011;3299;42.004;24.868;2022-12-07T12:29:57;22.35;;;11.73;;
6531;SDS011;3299;42.004;24.868;2022-12-07T12:35:35;17.55;;;10.45;;
6531;SDS011;3299;42.004;24.868;2022-12-07T12:40:58;24.42;;;12.75;;
6531;SDS011;3299;42.004;24.868;2022-12-07T12:48:55;21.20;;;12.48;;
6531;SDS011;3299;42.004;24.868;2022-12-07T12:51:40;22.00;;;11.80;;
6531;SDS011;3299;42.004;24.868;2022-12-07T12:54:20;21.58;;;11.77;;
6531;SDS011;3299;42.004;24.868;2022-12-07T12:56:53;21.85;;;11.57;;
6531;SDS011;3299;42.004;24.868;2022-12-07T12:59:32;19.83;;;12.20;;
6531;SDS011;3299;42.004;24.868;2022-12-07T13:02:21;19.70;;;11.05;;
6531;SDS011;3299;42.004;24.868;2022-12-07T13:13:01;19.10;;;11.60;;
6531;SDS011;3299;42.004;24.868;2022-12-07T13:15:36;18.95;;;11.50;;
6531;SDS011;3299;42.004;24.868;2022-12-07T13:20:56;19.98;;;12.13;;
6531;SDS011;3299;42.004;24.868;2022-12-07T13:25:55;21.60;;;11.57;;
6531;SDS011;3299;42.004;24.868;2022-12-07T13:28:26;18.20;;;11.52;;
6531;SDS011;3299;42.004;24.868;2022-12-07T13:33:36;18.70;;;12.45;;
6531;SDS011;3299;42.004;24.868;2022-12-07T13:36:02;23.58;;;13.05;;
6531;SDS011;3299;42.004;24.868;2022-12-07T13:38:28;21.52;;;13.18;;
6531;SDS011;3299;42.004;24.868;2022-12-07T13:43:30;23.02;;;15.15;;
6531;SDS011;3299;42.004;24.868;2022-12-07T13:45:56;22.90;;;14.45;;
6531;SDS011;3299;42.004;24.868;2022-12-07T13:51:01;24.67;;;12.93;;
6531;SDS011;3299;42.004;24.868;2022-12-07T13:53:28;50.38;;;29.45;;
6531;SDS011;3299;42.004;24.868;2022-12-07T13:55:56;26.80;;;16.40;;
6531;SDS011;3299;42.004;24.868;2022-12-07T13:58:23;26.73;;;16.08;;
6531;SDS011;3299;42.004;24.868;2022-12-07T14:00:50;20.70;;;13.63;;
6531;SDS011;3299;42.004;24.868;2022-12-07T14:05:41;20.40;;;13.35;;
6531;SDS011;3299;42.004;24.868;2022-12-07T14:10:38;18.13;;;11.00;;
6531;SDS011;3299;42.004;24.868;2022-12-07T14:15:50;22.85;;;11.98;;
6531;SDS011;3299;42.004;24.868;2022-12-07T14:21:18;17.33;;;11.38;;
6531;SDS011;3299;42.004;24.868;2022-12-07T14:24:02;17.65;;;10.82;;
6531;SDS011;3299;42.004;24.868;2022-12-07T14:26:41;19.83;;;11.23;;
6531;SDS011;3299;42.004;24.868;2022-12-07T14:31:52;17.90;;;10.88;;
6531;SDS011;3299;42.004;24.868;2022-12-07T14:34:20;22.67;;;11.52;;
6531;SDS011;3299;42.004;24.868;2022-12-07T14:36:46;16.58;;;10.93;;
6531;SDS011;3299;42.004;24.868;2022-12-07T14:39:12;20.95;;;11.73;;
6531;SDS011;3299;42.004;24.868;2022-12-07T14:41:37;20.27;;;11.45;;
6531;SDS011;3299;42.004;24.868;2022-12-07T14:44:21;23.27;;;11.68;;
6531;SDS011;3299;42.004;24.868;2022-12-07T14:46:51;23.38;;;11.60;;
6531;SDS011;3299;42.004;24.868;2022-12-07T14:49:17;16.95;;;10.18;;
6531;SDS011;3299;42.004;24.868;2022-12-07T14:51:43;21.42;;;11.73;;
6531;SDS011;3299;42.004;24.868;2022-12-07T14:54:14;20.00;;;11.02;;
6531;SDS011;3299;42.004;24.868;2022-12-07T14:56:44;18.27;;;10.02;;
6531;SDS011;3299;42.004;24.868;2022-12-07T14:59:11;21.33;;;11.27;;
6531;SDS011;3299;42.004;24.868;2022-12-07T15:01:37;17.67;;;11.05;;
6531;SDS011;3299;42.004;24.868;2022-12-07T15:04:04;18.58;;;10.70;;
6531;SDS011;3299;42.004;24.868;2022-12-07T15:06:30;20.27;;;12.15;;
6531;SDS011;3299;42.004;24.868;2022-12-07T15:08:55;24.80;;;12.15;;
6531;SDS011;3299;42.004;24.868;2022-12-07T15:11:21;19.45;;;10.80;;
6531;SDS011;3299;42.004;24.868;2022-12-07T15:13:46;21.17;;;11.65;;
6531;SDS011;3299;42.004;24.868;2022-12-07T15:16:30;17.95;;;10.82;;
6531;SDS011;3299;42.004;24.868;2022-12-07T15:18:56;22.85;;;12.90;;
6531;SDS011;3299;42.004;24.868;2022-12-07T15:21:21;22.15;;;11.75;;
6531;SDS011;3299;42.004;24.868;2022-12-07T15:23:47;18.70;;;12.75;;
6531;SDS011;3299;42.004;24.868;2022-12-07T15:26:13;24.52;;;13.35;;
6531;SDS011;3299;42.004;24.868;2022-12-07T15:28:39;25.85;;;12.95;;
6531;SDS011;3299;42.004;24.868;2022-12-07T15:31:12;20.67;;;13.02;;
6531;SDS011;3299;42.004;24.868;2022-12-07T15:33:39;20.52;;;12.13;;
6531;SDS011;3299;42.004;24.868;2022-12-07T15:36:04;23.33;;;12.60;;
6531;SDS011;3299;42.004;24.868;2022-12-07T15:38:30;21.48;;;12.73;;
6531;SDS011;3299;42.004;24.868;2022-12-07T15:40:55;20.60;;;12.70;;
6531;SDS011;3299;42.004;24.868;2022-12-07T15:43:21;21.45;;;13.15;;
6531;SDS011;3299;42.004;24.868;2022-12-07T15:46:06;21.95;;;13.52;;
6531;SDS011;3299;42.004;24.868;2022-12-07T15:48:31;18.05;;;11.15;;
6531;SDS011;3299;42.004;24.868;2022-12-07T15:51:07;22.77;;;11.85;;
6531;SDS011;3299;42.004;24.868;2022-12-07T15:53:34;21.15;;;11.90;;
6531;SDS011;3299;42.004;24.868;2022-12-07T15:56:00;19.05;;;12.77;;
6531;SDS011;3299;42.004;24.868;2022-12-07T15:58:25;23.17;;;12.13;;
6531;SDS011;3299;42.004;24.868;2022-12-07T16:00:51;35.22;;;21.00;;
6531;SDS011;3299;42.004;24.868;2022-12-07T16:03:17;24.80;;;15.57;;
6531;SDS011;3299;42.004;24.868;2022-12-07T16:05:48;26.25;;;17.02;;
6531;SDS011;3299;42.004;24.868;2022-12-07T16:08:14;22.17;;;13.80;;
6531;SDS011;3299;42.004;24.868;2022-12-07T16:10:39;23.10;;;14.77;;
6531;SDS011;3299;42.004;24.868;2022-12-07T16:13:08;23.42;;;13.30;;
6531;SDS011;3299;42.004;24.868;2022-12-07T16:15:40;20.30;;;11.48;;
6531;SDS011;3299;42.004;24.868;2022-12-07T16:18:06;19.05;;;12.07;;
6531;SDS011;3299;42.004;24.868;2022-12-07T16:20:32;17.42;;;10.98;;
6531;SDS011;3299;42.004;24.868;2022-12-07T16:22:57;17.48;;;11.18;;
6531;SDS011;3299;42.004;24.868;2022-12-07T16:25:23;22.05;;;12.32;;
6531;SDS011;3299;42.004;24.868;2022-12-07T16:27:48;22.25;;;14.73;;
6531;SDS011;3299;42.004;24.868;2022-12-07T16:30:14;22.73;;;14.18;;
6531;SDS011;3299;42.004;24.868;2022-12-07T16:32:41;22.02;;;13.02;;
6531;SDS011;3299;42.004;24.868;2022-12-07T16:35:06;19.80;;;12.85;;
6531;SDS011;3299;42.004;24.868;2022-12-07T16:37:32;19.63;;;11.95;;
6531;SDS011;3299;42.004;24.868;2022-12-07T16:39:57;23.33;;;13.15;;
6531;SDS011;3299;42.004;24.868;2022-12-07T16:42:23;21.58;;;13.55;;
6531;SDS011;3299;42.004;24.868;2022-12-07T16:44:48;22.58;;;12.48;;
6531;SDS011;3299;42.004;24.868;2022-12-07T16:47:13;20.80;;;13.52;;
6531;SDS011;3299;42.004;24.868;2022-12-07T16:49:39;30.60;;;19.20;;
6531;SDS011;3299;42.004;24.868;2022-12-07T16:52:04;25.38;;;14.70;;
6531;SDS011;3299;42.004;24.868;2022-12-07T16:54:30;20.40;;;13.27;;
6531;SDS011;3299;42.004;24.868;2022-12-07T16:56:58;18.92;;;11.45;;
6531;SDS011;3299;42.004;24.868;2022-12-07T16:59:23;20.02;;;12.88;;
6531;SDS011;3299;42.004;24.868;2022-12-07T17:01:49;19.17;;;12.50;;
6531;SDS011;3299;42.004;24.868;2022-12-07T17:04:14;16.35;;;10.63;;
6531;SDS011;3299;42.004;24.868;2022-12-07T17:06:39;21.98;;;11.82;;
6531;SDS011;3299;42.004;24.868;2022-12-07T17:09:05;19.17;;;12.82;;
6531;SDS011;3299;42.004;24.868;2022-12-07T17:11:33;27.73;;;14.15;;
6531;SDS011;3299;42.004;24.868;2022-12-07T17:13:59;19.67;;;12.23;;